createdAt,value
2022-11-13T00:05:00.593Z,7.07
2022-11-13T00:10:05.697Z,7.05
2022-11-13T00:15:11.029Z,7.02
2022-11-13T00:20:14.611Z,7.01
2022-11-13T00:25:18.321Z,6.99
2022-11-13T00:30:22.252Z,6.97
2022-11-13T00:35:25.705Z,6.90
2022-11-13T00:40:29.516Z,6.81
2022-11-13T00:45:33.216Z,6.78
2022-11-13T00:50:36.715Z,6.74
2022-11-13T00:55:40.217Z,6.76
2022-11-13T01:00:45.769Z,6.78
2022-11-13T01:05:49.619Z,6.76
2022-11-13T01:10:53.962Z,6.76
2022-11-13T01:15:58.078Z,6.74
2022-11-13T01:21:07.000Z,6.65
2022-11-13T01:26:12.726Z,6.58
2022-11-13T01:31:19.582Z,6.59
2022-11-13T01:36:25.507Z,6.57
2022-11-13T01:41:31.723Z,6.57
2022-11-13T01:46:39.104Z,6.54
2022-11-13T01:51:48.597Z,6.55
2022-11-13T01:56:52.708Z,6.58
2022-11-13T02:01:57.388Z,6.60
2022-11-13T02:07:04.489Z,6.61
2022-11-13T02:12:10.959Z,6.62
2022-11-13T02:17:19.619Z,6.63
2022-11-13T02:22:31.425Z,6.64
2022-11-13T02:27:38.769Z,6.66
2022-11-13T02:32:45.230Z,6.68
2022-11-13T02:37:49.079Z,6.70
2022-11-13T02:42:52.985Z,6.70
2022-11-13T02:47:59.477Z,6.70
2022-11-13T02:53:03.541Z,6.71
2022-11-13T02:58:07.333Z,6.73
2022-11-13T03:03:10.917Z,6.72
2022-11-13T03:08:14.568Z,6.71
2022-11-13T03:13:18.508Z,6.72
2022-11-13T03:18:23.658Z,6.71
2022-11-13T03:23:28.483Z,6.73
2022-11-13T03:28:32.507Z,6.74
2022-11-13T03:33:36.234Z,6.73
2022-11-13T03:38:40.357Z,6.72
2022-11-13T03:43:44.391Z,6.71
2022-11-13T03:48:47.931Z,6.67
2022-11-13T03:53:51.465Z,6.65
2022-11-13T03:58:55.012Z,6.67
2022-11-13T04:03:58.705Z,6.67
2022-11-13T04:09:02.698Z,6.67
2022-11-13T04:14:06.410Z,6.66
2022-11-13T04:19:09.994Z,6.66
2022-11-13T04:24:13.813Z,6.66
2022-11-13T04:29:17.752Z,6.67
2022-11-13T04:34:21.749Z,6.66
2022-11-13T04:39:25.583Z,6.64
2022-11-13T04:44:29.521Z,6.60
2022-11-13T04:49:33.088Z,6.58
2022-11-13T04:54:36.742Z,6.57
2022-11-13T04:59:40.325Z,6.58
2022-11-13T05:04:43.872Z,6.58
2022-11-13T05:09:47.579Z,6.55
2022-11-13T05:14:51.224Z,6.53
2022-11-13T05:23:38.971Z,6.51
2022-11-13T05:28:46.522Z,6.50
2022-11-13T05:33:53.519Z,6.48
2022-11-13T05:39:01.818Z,6.45
2022-11-13T05:44:09.923Z,6.44
2022-11-13T05:58:58.789Z,6.43
2022-11-13T06:04:07.357Z,6.40
2022-11-13T06:09:17.668Z,6.38
2022-11-13T06:14:24.868Z,6.34
2022-11-13T06:19:32.367Z,6.31
2022-11-13T06:24:39.375Z,6.28
2022-11-13T06:29:47.423Z,6.23
2022-11-13T06:34:54.481Z,6.21
2022-11-13T06:40:01.595Z,6.21
2022-11-13T06:45:07.891Z,6.23
2022-11-13T06:50:15.929Z,6.24
2022-11-13T06:55:23.007Z,6.27
2022-11-13T07:00:36.198Z,6.29
2022-11-13T07:05:44.434Z,6.30
2022-11-13T07:10:57.581Z,6.29
2022-11-13T07:16:16.431Z,6.29
2022-11-13T07:21:25.905Z,6.29
2022-11-13T07:26:34.120Z,6.31
2022-11-13T07:31:41.037Z,6.32
2022-11-13T07:36:48.116Z,6.34
2022-11-13T07:41:53.602Z,6.34
2022-11-13T07:47:00.727Z,6.32
2022-11-13T07:52:08.134Z,6.31
2022-11-13T07:57:16.430Z,6.33
2022-11-13T08:02:26.547Z,6.31
2022-11-13T08:07:35.159Z,6.31
2022-11-13T08:12:42.499Z,6.31
2022-11-13T08:17:56.584Z,6.30
2022-11-13T08:23:05.639Z,6.31
2022-11-13T08:28:13.446Z,6.33
2022-11-13T08:33:20.979Z,6.37
2022-11-13T08:38:27.440Z,6.41
2022-11-13T08:43:35.036Z,6.45
2022-11-13T08:48:42.029Z,6.43
2022-11-13T08:53:49.180Z,6.42
2022-11-13T08:58:56.260Z,6.46
2022-11-13T09:04:03.983Z,6.49
2022-11-13T09:09:11.353Z,6.50
2022-11-13T09:14:18.565Z,6.51
2022-11-13T09:19:23.997Z,6.53
2022-11-13T09:24:31.730Z,6.54
2022-11-13T09:29:39.025Z,6.51
2022-11-13T09:34:46.461Z,6.52
2022-11-13T09:39:53.622Z,6.57
2022-11-13T09:45:01.317Z,6.61
2022-11-13T09:50:18.680Z,6.64
2022-11-13T09:55:30.522Z,6.65
2022-11-13T10:00:38.666Z,6.69
2022-11-13T10:05:55.689Z,6.73
2022-11-13T10:11:10.924Z,6.67
2022-11-13T10:16:27.831Z,6.67
2022-11-13T10:21:38.633Z,6.71
2022-11-13T10:26:45.956Z,6.74
2022-11-13T10:31:54.688Z,6.79
2022-11-13T10:37:26.091Z,6.87
2022-11-13T10:42:39.913Z,6.96
2022-11-13T10:48:05.620Z,7.04
2022-11-13T10:53:19.983Z,7.02
2022-11-13T10:58:27.989Z,7.01
2022-11-13T11:03:35.095Z,7.03
2022-11-13T11:08:42.505Z,7.06
2022-11-13T11:13:49.493Z,7.05
2022-11-13T11:19:02.756Z,7.06
2022-11-13T11:24:18.329Z,7.09
2022-11-13T11:29:33.461Z,7.12
2022-11-13T11:34:45.763Z,7.09
2022-11-13T11:39:59.532Z,6.98
2022-11-13T11:45:15.636Z,7.07
2022-11-13T11:50:38.266Z,7.16
2022-11-13T11:56:02.768Z,7.17
2022-11-13T12:01:23.178Z,7.27
2022-11-13T12:06:47.205Z,7.35
2022-11-13T12:12:03.524Z,7.38
2022-11-13T12:17:23.709Z,7.43
2022-11-13T12:22:43.834Z,7.45
2022-11-13T12:27:58.584Z,7.42
2022-11-13T12:33:23.172Z,7.44
2022-11-13T12:38:40.827Z,7.46
2022-11-13T12:44:11.671Z,7.43
2022-11-13T12:49:32.184Z,7.40
2022-11-13T12:54:40.548Z,7.36
2022-11-13T12:59:50.580Z,7.33
2022-11-13T13:05:08.740Z,7.35
2022-11-13T13:10:23.996Z,7.38
2022-11-13T13:15:37.743Z,7.38
2022-11-13T13:20:59.746Z,7.38
2022-11-13T13:26:16.254Z,7.41
2022-11-13T13:31:38.509Z,7.42
2022-11-13T13:36:52.889Z,7.44
2022-11-13T13:42:23.944Z,7.38
2022-11-13T13:47:34.835Z,7.33
2022-11-13T13:52:44.559Z,7.27
2022-11-13T13:57:51.884Z,7.24
2022-11-13T14:02:58.981Z,7.19
2022-11-13T14:08:07.807Z,7.16
2022-11-13T14:13:23.914Z,7.19
2022-11-13T14:18:32.039Z,7.19
2022-11-13T14:23:42.645Z,7.17
2022-11-13T14:28:57.147Z,7.16
2022-11-13T14:34:10.119Z,7.16
2022-11-13T14:39:25.071Z,7.14
2022-11-13T14:44:34.858Z,7.13
2022-11-13T14:49:41.770Z,7.14
2022-11-13T14:55:13.768Z,7.14
2022-11-13T15:00:19.402Z,7.11
2022-11-13T15:05:26.514Z,7.08
2022-11-13T15:10:32.583Z,7.07
2022-11-13T15:15:40.033Z,7.03
2022-11-13T15:20:47.817Z,7.00
2022-11-13T15:25:54.873Z,6.96
2022-11-13T15:31:00.354Z,6.88
2022-11-13T15:36:09.913Z,6.81
2022-11-13T15:41:20.006Z,6.80
2022-11-13T15:46:27.431Z,6.78
2022-11-13T15:51:37.696Z,6.74
2022-11-13T15:58:55.947Z,6.65
2022-11-13T16:04:05.942Z,6.61
2022-11-13T16:09:16.487Z,6.59
2022-11-13T16:14:25.215Z,6.55
2022-11-13T16:19:33.469Z,6.47
2022-11-13T16:24:40.460Z,6.41
2022-11-13T16:29:47.473Z,6.35
2022-11-13T16:34:54.773Z,6.31
2022-11-13T16:40:00.346Z,6.24
2022-11-13T16:45:08.764Z,6.21
2022-11-13T16:50:22.163Z,6.17
2022-11-13T16:55:31.833Z,6.15
2022-11-13T17:00:40.982Z,6.21
2022-11-13T17:05:52.550Z,6.29
2022-11-13T17:11:00.877Z,6.31
2022-11-13T17:16:08.888Z,6.33
2022-11-13T17:21:16.128Z,6.35
2022-11-13T17:26:23.983Z,6.37
2022-11-13T17:31:31.350Z,6.38
2022-11-13T17:36:38.978Z,6.41
2022-11-13T17:41:46.466Z,6.42
2022-11-13T17:46:54.074Z,6.43
2022-11-13T17:52:01.382Z,6.43
2022-11-13T17:57:11.085Z,6.42
2022-11-13T18:02:20.596Z,6.43
2022-11-13T18:07:29.168Z,6.46
2022-11-13T18:12:36.952Z,6.46
2022-11-13T18:17:45.079Z,6.45
2022-11-13T18:22:52.381Z,6.42
2022-11-13T18:27:59.589Z,6.35
2022-11-13T18:33:05.046Z,6.30
2022-11-13T18:38:12.570Z,6.31
2022-11-13T18:43:19.674Z,6.28
2022-11-13T18:48:25.338Z,6.29
2022-11-13T18:53:32.458Z,6.30
2022-11-13T18:58:41.592Z,6.30
2022-11-13T19:04:08.287Z,6.29
2022-11-13T19:09:17.712Z,6.28
2022-11-13T19:14:25.210Z,6.26
2022-11-13T19:19:33.222Z,6.24
2022-11-13T19:24:40.325Z,6.20
2022-11-13T19:29:47.562Z,6.15
2022-11-13T19:34:55.251Z,6.14
2022-11-13T19:40:02.357Z,6.11
2022-11-13T19:45:09.231Z,6.08
2022-11-13T19:50:16.877Z,6.12
2022-11-13T19:55:23.988Z,6.13
2022-11-13T20:00:31.290Z,6.14
2022-11-13T20:05:42.893Z,6.13
2022-11-13T20:10:49.891Z,6.16
2022-11-13T20:15:57.532Z,6.17
2022-11-13T20:21:05.842Z,6.17
2022-11-13T20:26:16.794Z,6.15
2022-11-13T20:31:25.815Z,6.16
2022-11-13T20:36:32.792Z,6.18
2022-11-13T20:41:41.648Z,6.17
2022-11-13T20:46:48.587Z,6.15
2022-11-13T20:51:58.694Z,6.16
2022-11-13T20:57:05.996Z,6.13
2022-11-13T21:02:11.722Z,6.14
2022-11-13T21:07:19.020Z,6.11
2022-11-13T21:12:26.597Z,6.05
2022-11-13T21:17:33.783Z,6.05
2022-11-13T21:22:40.893Z,6.05
2022-11-13T21:27:46.449Z,6.06
2022-11-13T21:32:53.452Z,6.06
2022-11-13T21:38:00.466Z,6.04
2022-11-13T21:43:06.021Z,5.99
2022-11-13T21:48:13.088Z,5.98
2022-11-13T21:53:18.588Z,5.97
2022-11-13T21:58:33.500Z,5.98
2022-11-13T22:03:41.115Z,6.00
2022-11-13T22:08:54.980Z,5.99
2022-11-13T22:14:05.437Z,6.00
2022-11-13T22:19:15.466Z,6.03
2022-11-13T22:24:22.600Z,6.04
2022-11-13T22:29:29.702Z,6.06
2022-11-13T22:34:35.170Z,6.07
2022-11-13T22:39:42.283Z,6.06
2022-11-13T22:44:56.124Z,6.04
2022-11-13T22:50:03.693Z,6.01
2022-11-13T22:55:11.505Z,5.98
2022-11-13T23:00:20.044Z,5.96
2022-11-13T23:05:27.034Z,5.94
2022-11-13T23:10:34.089Z,5.91
2022-11-13T23:15:39.696Z,5.85
2022-11-13T23:20:48.905Z,5.79
2022-11-13T23:25:55.906Z,5.71
2022-11-13T23:31:01.689Z,5.69
2022-11-13T23:36:11.046Z,5.65
2022-11-13T23:41:18.446Z,5.65
2022-11-13T23:46:25.349Z,5.64
2022-11-13T23:51:32.398Z,5.63
2022-11-13T23:56:39.370Z,5.61
